Alden, Illinois
Current Conditions -  °F | °C
As of 8:15 AM on Sunday 21 Dec 2014 (Local Time) from KBUU Reporting Station
Overcast Overcast  
Wind Chill: -4°   Ceiling: 2200
Heat Index:   Visibility: 7mi
Dew Point: -2°   Wind: 6mph
Humidity: 89%   Direction: 180°S
Pressure: 30.16"   Gusts: NA
Location:  42.46°N, 88.52°W
Report Text: KBUU 211415Z AUTO 18005KT 7SM SCT018 BKN022 OVC040 00/M02 A3016 RMK AO2 T10051021
Loading
Personal Weather Stations






























Interactive Weather Map New forecast layout! Learn more

10-Day Weather Forecast

Advertisements
Track Severe Weather on mobile